Time;durP1;ratioP1;P1;durP2;ratioP2;P2;SDS_P1;SDS_P2;PMS_P1;PMS_P2;Temp;Humidity;BMP_temperature;BMP_pressure;BME280_temperature;BME280_humidity;BME280_pressure;Samples;Min_cycle;Max_cycle;Signal;HPM_P1;HPM_P2
2023/10/23 00:00:52;;;;;;;6.13;3.30;;;;;11.20;100732.00;;;;5043204;28;20284;-71
2023/10/23 00:03:40;;;;;;;5.87;3.80;;;;;11.20;100727.00;;;;5043767;28;20217;-73
2023/10/23 00:06:27;;;;;;;6.50;4.30;;;;;11.20;100740.00;;;;5044480;28;20360;-73
2023/10/23 00:09:14;;;;;;;7.50;3.73;;;;;11.20;100737.00;;;;5041950;28;20217;-73
2023/10/23 00:12:00;;;;;;;6.97;3.57;;;;;11.10;100744.00;;;;5045802;28;20217;-73
2023/10/23 00:14:46;;;;;;;5.93;3.60;;;;;11.10;100745.00;;;;5048607;28;20212;-74
2023/10/23 00:17:34;;;;;;;11.10;4.13;;;;;11.10;100743.00;;;;5043150;28;20285;-72
2023/10/23 00:20:20;;;;;;;6.80;3.70;;;;;11.00;100750.00;;;;5046586;28;20216;-73
2023/10/23 00:23:07;;;;;;;9.47;4.63;;;;;11.00;100743.00;;;;5039582;28;20209;-73
2023/10/23 00:25:53;;;;;;;5.80;3.70;;;;;11.00;100753.00;;;;5043943;28;20260;-73
2023/10/23 00:28:40;;;;;;;6.60;3.97;;;;;11.00;100756.00;;;;5041058;28;20898;-73
2023/10/23 00:31:26;;;;;;;7.00;4.00;;;;;11.00;100762.00;;;;5047886;28;20212;-72
2023/10/23 00:34:14;;;;;;;5.93;3.80;;;;;10.90;100768.00;;;;5049826;28;20252;-72
2023/10/23 00:37:00;;;;;;;8.10;4.13;;;;;10.90;100765.00;;;;5043273;28;20612;-72
2023/10/23 00:39:46;;;;;;;7.53;3.47;;;;;10.80;100764.00;;;;5041358;28;20211;-71
2023/10/23 00:42:32;;;;;;;6.07;3.57;;;;;10.80;100764.00;;;;5049143;28;20757;-72
2023/10/23 00:45:19;;;;;;;13.17;4.20;;;;;10.80;100764.00;;;;5046995;28;20245;-72
2023/10/23 00:48:06;;;;;;;7.20;3.90;;;;;10.80;100764.00;;;;5044648;28;20224;-72
2023/10/23 00:50:57;;;;;;;10.67;4.20;;;;;10.80;100763.00;;;;5038082;28;20222;-73
2023/10/23 00:53:44;;;;;;;5.73;3.83;;;;;10.80;100760.00;;;;5045582;28;20209;-73
2023/10/23 00:56:31;;;;;;;7.00;4.20;;;;;10.70;100771.00;;;;5048057;28;20224;-73
2023/10/23 00:59:17;;;;;;;5.80;3.83;;;;;10.70;100767.00;;;;5048676;28;20265;-72
2023/10/23 01:02:04;;;;;;;7.17;4.27;;;;;10.60;100754.00;;;;5043496;28;20210;-72
2023/10/23 01:04:51;;;;;;;9.07;4.20;;;;;10.60;100765.00;;;;5034249;28;20324;-73
2023/10/23 01:07:39;;;;;;;7.33;4.40;;;;;10.60;100763.00;;;;5041028;28;20235;-72
2023/10/23 01:10:25;;;;;;;6.60;4.37;;;;;10.60;100766.00;;;;5042212;28;20695;-73
2023/10/23 01:13:12;;;;;;;8.23;3.73;;;;;10.60;100762.00;;;;5048793;28;20574;-72
2023/10/23 01:15:58;;;;;;;6.67;4.13;;;;;10.60;100754.00;;;;5043081;28;20219;-72
2023/10/23 01:18:45;;;;;;;7.23;3.53;;;;;10.60;100764.00;;;;5036026;28;20232;-74
2023/10/23 01:21:31;;;;;;;6.50;3.90;;;;;10.50;100762.00;;;;5037256;28;20217;-73
2023/10/23 01:24:20;;;;;;;7.47;4.10;;;;;10.50;100767.00;;;;5042880;28;20212;-77
2023/10/23 01:27:08;;;;;;;5.80;3.83;;;;;10.50;100767.00;;;;5042704;28;20278;-73
2023/10/23 01:29:54;;;;;;;7.33;4.13;;;;;10.50;100771.00;;;;5039895;28;20217;-72
2023/10/23 01:32:40;;;;;;;7.67;4.40;;;;;10.60;100761.00;;;;5045029;28;20581;-73
2023/10/23 01:35:27;;;;;;;5.57;3.90;;;;;10.60;100772.00;;;;5046389;28;20587;-72
2023/10/23 01:38:14;;;;;;;8.33;4.20;;;;;10.70;100773.00;;;;5040712;28;20322;-73
2023/10/23 01:41:00;;;;;;;6.80;4.23;;;;;10.80;100773.00;;;;5043385;28;20204;-72
2023/10/23 01:43:48;;;;;;;7.10;4.30;;;;;10.80;100770.00;;;;5048406;28;20212;-73
2023/10/23 01:46:35;;;;;;;11.03;4.37;;;;;10.90;100771.00;;;;5043811;28;20232;-72
2023/10/23 01:49:21;;;;;;;8.73;4.20;;;;;10.90;100766.00;;;;5046052;28;20308;-75
2023/10/23 01:52:07;;;;;;;11.60;4.17;;;;;10.90;100771.00;;;;5039301;28;20875;-73
2023/10/23 01:54:54;;;;;;;9.87;4.03;;;;;11.00;100778.00;;;;5048371;28;20209;-73
2023/10/23 01:57:40;;;;;;;8.73;4.27;;;;;11.00;100775.00;;;;5047380;28;20727;-73
2023/10/23 02:00:28;;;;;;;9.63;4.30;;;;;11.00;100779.00;;;;5046191;28;20220;-73
2023/10/23 02:03:14;;;;;;;7.73;4.70;;;;;11.00;100783.00;;;;5043844;28;20391;-72
2023/10/23 02:06:00;;;;;;;7.57;4.23;;;;;11.10;100785.00;;;;5042457;28;20245;-71
2023/10/23 02:08:47;;;;;;;8.03;4.30;;;;;11.00;100783.00;;;;5040938;28;20307;-74
2023/10/23 02:11:33;;;;;;;6.40;3.87;;;;;11.10;100790.00;;;;5037760;28;20955;-72
2023/10/23 02:14:19;;;;;;;10.47;3.80;;;;;11.10;100785.00;;;;5043264;28;20296;-73
2023/10/23 02:17:06;;;;;;;7.40;4.10;;;;;11.10;100786.00;;;;5037007;28;20367;-72
2023/10/23 02:19:53;;;;;;;13.93;4.03;;;;;11.00;100791.00;;;;5035021;28;20237;-72
2023/10/23 02:22:39;;;;;;;9.67;3.77;;;;;11.10;100795.00;;;;5045533;28;20747;-72
2023/10/23 02:25:26;;;;;;;13.93;4.00;;;;;11.10;100794.00;;;;5043961;28;20732;-73
2023/10/23 02:28:13;;;;;;;6.50;3.70;;;;;11.00;100802.00;;;;5041548;28;20320;-72
2023/10/23 02:31:04;;;;;;;8.80;4.03;;;;;11.00;100787.00;;;;5035393;28;20217;-72
2023/10/23 02:33:52;;;;;;;7.50;3.83;;;;;11.00;100802.00;;;;5046239;28;20224;-74
2023/10/23 02:36:38;;;;;;;10.53;4.27;;;;;11.00;100796.00;;;;5038572;28;20219;-72
2023/10/23 02:39:25;;;;;;;6.53;4.07;;;;;10.90;100804.00;;;;5040474;28;20742;-72
2023/10/23 02:42:11;;;;;;;7.37;4.10;;;;;10.90;100792.00;;;;5047434;28;20236;-73
2023/10/23 02:44:58;;;;;;;8.87;3.77;;;;;11.00;100797.00;;;;5047350;28;20209;-73
2023/10/23 02:47:44;;;;;;;6.20;4.20;;;;;11.00;100793.00;;;;5044124;28;20600;-74
2023/10/23 02:50:32;;;;;;;9.00;4.10;;;;;11.00;100798.00;;;;5043478;28;20224;-71
2023/10/23 02:53:19;;;;;;;6.13;4.37;;;;;11.00;100801.00;;;;5042610;28;21200;-72
2023/10/23 02:56:10;;;;;;;7.47;3.77;;;;;11.00;100797.00;;;;5039154;28;20217;-73
2023/10/23 02:58:57;;;;;;;7.03;3.90;;;;;11.00;100804.00;;;;5044790;28;20217;-72
2023/10/23 03:01:44;;;;;;;5.50;3.67;;;;;11.00;100794.00;;;;5045806;28;20235;-72
2023/10/23 03:04:30;;;;;;;6.63;4.10;;;;;11.00;100796.00;;;;5038280;28;20896;-72
2023/10/23 03:07:18;;;;;;;8.30;3.37;;;;;11.00;100803.00;;;;5045243;28;20760;-73
2023/10/23 03:10:04;;;;;;;7.03;4.27;;;;;11.00;100802.00;;;;5045377;28;20240;-73
2023/10/23 03:12:50;;;;;;;7.03;4.03;;;;;11.00;100810.00;;;;5039680;28;20228;-73
2023/10/23 03:15:37;;;;;;;7.13;4.03;;;;;11.00;100805.00;;;;5044832;28;20287;-73
2023/10/23 03:18:25;;;;;;;10.57;3.80;;;;;11.10;100809.00;;;;5043515;28;20252;-73
2023/10/23 03:21:11;;;;;;;8.50;4.00;;;;;11.10;100811.00;;;;5041094;28;20209;-74
2023/10/23 03:23:58;;;;;;;9.57;4.00;;;;;11.10;100816.00;;;;5031708;28;20220;-73
2023/10/23 03:26:45;;;;;;;6.70;3.73;;;;;11.10;100821.00;;;;5039366;28;20253;-74
2023/10/23 03:29:31;;;;;;;9.70;4.00;;;;;11.10;100819.00;;;;5045214;28;20204;-73
2023/10/23 03:32:18;;;;;;;7.00;4.03;;;;;11.10;100829.00;;;;5037899;28;20236;-74
2023/10/23 03:35:04;;;;;;;6.53;3.80;;;;;11.20;100823.00;;;;5039666;28;20586;-74
2023/10/23 03:37:51;;;;;;;7.53;4.10;;;;;11.20;100832.00;;;;5045412;28;20223;-71
2023/10/23 03:40:39;;;;;;;8.83;4.50;;;;;11.20;100834.00;;;;5036572;28;20232;-75
2023/10/23 03:43:25;;;;;;;6.60;4.30;;;;;11.20;100828.00;;;;5041302;28;20268;-73
2023/10/23 03:46:11;;;;;;;7.53;4.40;;;;;11.20;100829.00;;;;5046933;28;20598;-73
2023/10/23 03:48:58;;;;;;;9.77;4.60;;;;;11.30;100833.00;;;;5042198;28;20311;-73
2023/10/23 03:51:44;;;;;;;9.47;4.73;;;;;11.30;100827.00;;;;5049701;28;20275;-73
2023/10/23 03:54:30;;;;;;;9.07;4.07;;;;;11.30;100824.00;;;;5050198;28;20209;-73
2023/10/23 03:57:18;;;;;;;7.97;5.10;;;;;11.30;100833.00;;;;5045198;28;20248;-71
2023/10/23 04:00:06;;;;;;;8.60;4.90;;;;;11.40;100820.00;;;;5046630;28;20630;-72
2023/10/23 04:02:53;;;;;;;8.27;4.53;;;;;11.40;100819.00;;;;5049602;28;20344;-73
2023/10/23 04:05:42;;;;;;;6.40;4.47;;;;;11.40;100827.00;;;;5045272;28;20212;-74
2023/10/23 04:08:28;;;;;;;9.10;4.87;;;;;11.50;100828.00;;;;5050210;28;20240;-72
2023/10/23 04:11:15;;;;;;;9.07;4.90;;;;;11.50;100828.00;;;;5048011;28;20886;-74
2023/10/23 04:14:04;;;;;;;10.30;4.47;;;;;11.50;100826.00;;;;5045954;28;20283;-75
2023/10/23 04:16:50;;;;;;;13.40;4.97;;;;;11.50;100830.00;;;;5047009;28;20403;-73
2023/10/23 04:19:36;;;;;;;7.77;4.70;;;;;11.50;100817.00;;;;5047046;28;20213;-73
2023/10/23 04:22:23;;;;;;;9.87;5.13;;;;;11.60;100820.00;;;;5044141;28;20212;-73
2023/10/23 04:25:09;;;;;;;7.27;4.57;;;;;11.50;100817.00;;;;5045927;28;20782;-72
2023/10/23 04:27:56;;;;;;;9.57;4.83;;;;;11.60;100823.00;;;;5041919;28;20240;-74
2023/10/23 04:30:44;;;;;;;8.13;4.27;;;;;11.60;100827.00;;;;5049248;28;20699;-74
2023/10/23 04:33:30;;;;;;;10.33;5.27;;;;;11.60;100833.00;;;;5049349;28;20278;-72
2023/10/23 04:36:16;;;;;;;12.43;5.10;;;;;11.60;100832.00;;;;5044203;28;20579;-73
2023/10/23 04:39:03;;;;;;;10.83;4.73;;;;;11.60;100832.00;;;;5046267;28;20216;-73
2023/10/23 04:41:49;;;;;;;7.33;4.50;;;;;11.70;100832.00;;;;5046837;28;20744;-74
2023/10/23 04:44:35;;;;;;;8.97;4.50;;;;;11.70;100835.00;;;;5034782;28;20285;-73
2023/10/23 04:47:23;;;;;;;9.93;5.67;;;;;11.70;100835.00;;;;5045639;28;20233;-73
2023/10/23 04:50:11;;;;;;;9.67;5.13;;;;;11.70;100849.00;;;;5048154;28;20259;-73
2023/10/23 04:52:59;;;;;;;15.53;5.03;;;;;11.70;100834.00;;;;5041483;28;20217;-72
2023/10/23 04:55:45;;;;;;;8.07;4.70;;;;;11.70;100844.00;;;;5046863;28;20311;-75
2023/10/23 04:58:31;;;;;;;8.07;5.13;;;;;11.70;100839.00;;;;5043563;28;20233;-73
2023/10/23 05:01:19;;;;;;;6.10;4.27;;;;;11.70;100839.00;;;;5045396;28;20228;-74
2023/10/23 05:04:07;;;;;;;10.13;5.00;;;;;11.80;100848.00;;;;5045333;28;20591;-74
2023/10/23 05:06:53;;;;;;;7.40;4.63;;;;;11.70;100846.00;;;;5047046;28;20236;-73
2023/10/23 05:09:40;;;;;;;8.47;5.07;;;;;11.80;100846.00;;;;5038962;28;20337;-73
2023/10/23 05:12:26;;;;;;;9.67;4.67;;;;;11.80;100850.00;;;;5047437;28;20205;-74
2023/10/23 05:15:12;;;;;;;10.53;5.10;;;;;11.70;100848.00;;;;5042420;28;20693;-76
2023/10/23 05:17:58;;;;;;;8.47;5.00;;;;;11.70;100836.00;;;;5042182;28;20228;-73
2023/10/23 05:20:46;;;;;;;10.13;5.07;;;;;11.70;100848.00;;;;5045036;28;20217;-73
2023/10/23 05:23:33;;;;;;;10.40;5.07;;;;;11.70;100846.00;;;;5044820;28;20314;-73
2023/10/23 05:26:20;;;;;;;8.47;4.97;;;;;11.80;100837.00;;;;5036619;28;20205;-73
2023/10/23 05:29:06;;;;;;;9.30;5.50;;;;;11.80;100844.00;;;;5038357;28;20223;-74
2023/10/23 05:31:52;;;;;;;14.53;6.13;;;;;11.70;100834.00;;;;5045930;28;20207;-74
2023/10/23 05:34:39;;;;;;;9.10;5.37;;;;;11.80;100836.00;;;;5045768;28;20778;-73
2023/10/23 05:37:26;;;;;;;11.03;5.83;;;;;11.80;100849.00;;;;5041955;28;20646;-74
2023/10/23 05:40:13;;;;;;;8.80;5.63;;;;;11.80;100838.00;;;;5034480;28;20701;-73
2023/10/23 05:42:59;;;;;;;11.80;5.47;;;;;11.80;100838.00;;;;5041600;28;20640;-72
2023/10/23 05:45:46;;;;;;;8.63;5.50;;;;;11.80;100846.00;;;;5041930;28;20209;-73
2023/10/23 05:48:33;;;;;;;9.83;5.83;;;;;11.80;100850.00;;;;5040858;28;20631;-73
2023/10/23 05:51:21;;;;;;;9.00;5.27;;;;;11.80;100846.00;;;;5036572;28;20692;-72
2023/10/23 05:54:09;;;;;;;11.83;5.47;;;;;11.80;100843.00;;;;5035161;28;20677;-73
2023/10/23 05:56:56;;;;;;;9.50;5.47;;;;;11.80;100849.00;;;;5039368;28;20236;-73
2023/10/23 05:59:43;;;;;;;8.30;5.37;;;;;11.90;100860.00;;;;5046774;28;20213;-72
2023/10/23 06:02:30;;;;;;;8.63;5.13;;;;;11.90;100848.00;;;;5039188;28;20213;-71
2023/10/23 06:05:16;;;;;;;7.63;5.27;;;;;11.90;100847.00;;;;5034956;28;20328;-73
2023/10/23 06:08:02;;;;;;;10.63;5.70;;;;;11.90;100844.00;;;;5042998;28;20615;-72
2023/10/23 06:10:50;;;;;;;9.43;5.83;;;;;11.90;100851.00;;;;5046375;28;20264;-72
2023/10/23 06:13:36;;;;;;;12.03;5.37;;;;;11.90;100851.00;;;;5047527;28;20232;-73
2023/10/23 06:16:22;;;;;;;8.17;5.03;;;;;11.90;100860.00;;;;5037297;28;20232;-70
2023/10/23 06:19:09;;;;;;;8.37;4.80;;;;;11.90;100857.00;;;;5037453;28;20212;-73
2023/10/23 06:21:55;;;;;;;8.73;4.93;;;;;11.90;100858.00;;;;5047990;28;20687;-74
2023/10/23 06:24:42;;;;;;;8.53;5.40;;;;;11.90;100862.00;;;;5042540;28;20209;-72
2023/10/23 06:27:29;;;;;;;6.87;4.93;;;;;11.90;100861.00;;;;5042152;28;20275;-72
2023/10/23 06:30:15;;;;;;;8.37;5.07;;;;;12.00;100860.00;;;;5037205;28;20578;-72
2023/10/23 06:33:02;;;;;;;8.97;5.30;;;;;12.00;100852.00;;;;5042252;28;20345;-73
2023/10/23 06:35:57;;;;;;;7.37;5.33;;;;;12.00;100855.00;;;;5044676;28;20306;-72
2023/10/23 06:38:45;;;;;;;9.93;6.00;;;;;12.00;100873.00;;;;5043182;28;20221;-74
2023/10/23 06:41:32;;;;;;;12.40;6.10;;;;;12.00;100870.00;;;;5039579;28;20213;-75
2023/10/23 06:44:20;;;;;;;9.07;5.63;;;;;12.10;100872.00;;;;5027930;28;20333;-73
2023/10/23 06:47:07;;;;;;;10.07;5.67;;;;;12.20;100861.00;;;;5027682;28;20237;-73
2023/10/23 06:49:53;;;;;;;8.90;6.00;;;;;12.20;100864.00;;;;5031168;28;20275;-72
2023/10/23 06:52:39;;;;;;;13.00;6.17;;;;;12.10;100860.00;;;;5030175;28;20228;-70
2023/10/23 06:55:27;;;;;;;11.97;6.43;;;;;12.10;100864.00;;;;5028360;28;20214;-73
2023/10/23 06:58:13;;;;;;;14.50;6.10;;;;;12.20;100869.00;;;;5027845;28;20237;-73
2023/10/23 07:01:07;;;;;;;12.43;6.70;;;;;12.20;100861.00;;;;5039467;28;20212;-73
2023/10/23 07:03:53;;;;;;;11.97;7.27;;;;;12.20;100868.00;;;;5033418;28;20224;-73
2023/10/23 07:06:40;;;;;;;11.93;6.20;;;;;12.20;100869.00;;;;5041337;28;20673;-73
2023/10/23 07:09:26;;;;;;;7.70;5.77;;;;;12.30;100868.00;;;;5037977;28;20236;-73
2023/10/23 07:12:12;;;;;;;13.67;6.40;;;;;12.30;100859.00;;;;5033782;28;20298;-73
2023/10/23 07:15:00;;;;;;;11.93;6.03;;;;;12.40;100867.00;;;;5044650;28;20212;-72
2023/10/23 07:17:48;;;;;;;9.63;6.30;;;;;12.40;100861.00;;;;5035926;28;20237;-72
2023/10/23 07:20:34;;;;;;;13.70;6.53;;;;;12.40;100860.00;;;;5041119;28;20340;-73
2023/10/23 07:23:22;;;;;;;14.53;5.97;;;;;12.40;100861.00;;;;5041607;28;20236;-72
2023/10/23 07:26:12;;;;;;;9.17;5.70;;;;;12.40;100860.00;;;;5040535;28;20691;-73
2023/10/23 07:28:59;;;;;;;8.77;5.47;;;;;12.50;100865.00;;;;5043794;28;20235;-73
2023/10/23 07:31:45;;;;;;;9.40;5.57;;;;;12.50;100872.00;;;;5044182;28;20209;-73
2023/10/23 07:34:33;;;;;;;12.07;5.80;;;;;12.50;100877.00;;;;5038708;28;20209;-73
2023/10/23 07:37:19;;;;;;;11.10;5.43;;;;;12.50;100872.00;;;;5035856;28;20237;-70
2023/10/23 07:40:07;;;;;;;8.43;5.07;;;;;12.60;100875.00;;;;5045192;28;20652;-73
2023/10/23 07:42:53;;;;;;;9.67;5.37;;;;;12.60;100869.00;;;;5041454;28;20259;-73
2023/10/23 07:45:41;;;;;;;9.27;4.57;;;;;12.60;100866.00;;;;5045871;28;20213;-72
2023/10/23 07:48:27;;;;;;;8.37;5.03;;;;;12.70;100881.00;;;;5043297;28;20594;-73
2023/10/23 07:51:15;;;;;;;8.77;5.33;;;;;12.70;100878.00;;;;5040909;28;20224;-73
2023/10/23 07:54:03;;;;;;;9.97;5.70;;;;;12.70;100868.00;;;;5045038;28;20628;-73
2023/10/23 07:56:49;;;;;;;12.07;5.87;;;;;12.80;100867.00;;;;5047444;28;20260;-71
2023/10/23 07:59:35;;;;;;;8.13;5.10;;;;;12.70;100868.00;;;;5038548;28;20237;-73
2023/10/23 08:02:22;;;;;;;10.00;5.93;;;;;12.80;100859.00;;;;5043799;28;20214;-73
2023/10/23 08:05:08;;;;;;;9.97;5.90;;;;;12.70;100869.00;;;;5042825;28;20218;-72
2023/10/23 08:07:56;;;;;;;13.17;6.03;;;;;12.90;100869.00;;;;5041274;28;20241;-73
2023/10/23 08:10:42;;;;;;;12.33;6.00;;;;;12.90;100874.00;;;;5048235;28;20228;-74
2023/10/23 08:13:29;;;;;;;10.97;6.00;;;;;13.00;100866.00;;;;5049803;28;20214;-73
2023/10/23 08:16:15;;;;;;;12.13;6.17;;;;;13.00;100867.00;;;;5049817;28;20220;-73
2023/10/23 08:19:01;;;;;;;8.67;5.73;;;;;13.00;100862.00;;;;5045386;28;20229;-72
2023/10/23 08:21:48;;;;;;;10.80;5.57;;;;;13.00;100862.00;;;;5048505;28;20201;-73
2023/10/23 08:24:35;;;;;;;10.37;5.53;;;;;13.00;100859.00;;;;5038779;28;20243;-73
2023/10/23 08:27:22;;;;;;;11.17;5.90;;;;;13.00;100859.00;;;;5046316;28;20248;-73
2023/10/23 08:30:09;;;;;;;13.13;5.70;;;;;13.00;100857.00;;;;5038706;28;20760;-73
2023/10/23 08:32:55;;;;;;;12.20;5.67;;;;;13.00;100862.00;;;;5038064;28;20229;-73
2023/10/23 08:35:42;;;;;;;10.57;5.50;;;;;13.20;100867.00;;;;5039362;28;20629;-73
2023/10/23 08:38:28;;;;;;;19.23;5.67;;;;;13.20;100867.00;;;;5040048;28;21011;-73
2023/10/23 08:41:16;;;;;;;10.33;5.10;;;;;13.20;100869.00;;;;5043173;28;20213;-73
2023/10/23 08:44:04;;;;;;;9.50;5.17;;;;;13.30;100864.00;;;;5037404;28;20213;-74
2023/10/23 08:46:50;;;;;;;11.27;5.77;;;;;13.30;100862.00;;;;5041578;28;20241;-71
2023/10/23 08:49:36;;;;;;;9.63;5.23;;;;;13.40;100853.00;;;;5037051;28;20311;-73
2023/10/23 08:52:26;;;;;;;8.90;5.10;;;;;13.50;100843.00;;;;5038826;28;20257;-73
2023/10/23 08:55:13;;;;;;;10.77;5.30;;;;;13.60;100839.00;;;;5043133;28;20755;-73
2023/10/23 08:58:05;;;;;;;9.63;5.60;;;;;13.70;100843.00;;;;5044982;28;20722;-72
2023/10/23 09:00:51;;;;;;;9.60;4.93;;;;;13.70;100845.00;;;;5041539;28;20219;-74
2023/10/23 09:03:38;;;;;;;8.77;5.53;;;;;13.80;100836.00;;;;5015061;28;20356;-73
2023/10/23 09:06:45;;;;;;;9.27;4.60;;;;;13.90;100829.00;;;;5019771;28;20231;-71
2023/10/23 09:09:31;;;;;;;9.03;4.70;;;;;13.90;100849.00;;;;5021360;28;20270;-72
2023/10/23 09:12:30;;;;;;;10.20;4.93;;;;;14.00;100834.00;;;;5025574;28;20234;-73
2023/10/23 09:15:20;;;;;;;8.87;5.07;;;;;14.10;100827.00;;;;5022077;28;20814;-72
2023/10/23 09:18:08;;;;;;;10.83;5.53;;;;;14.20;100839.00;;;;5022885;28;20250;-73
2023/10/23 09:20:55;;;;;;;10.30;4.90;;;;;14.20;100844.00;;;;5021178;28;20317;-74
2023/10/23 09:23:53;;;;;;;7.63;5.20;;;;;14.30;100844.00;;;;5022829;28;20234;-74
2023/10/23 09:26:39;;;;;;;9.80;5.33;;;;;14.20;100844.00;;;;5020635;28;20292;-73
2023/10/23 09:29:26;;;;;;;13.73;5.23;;;;;14.30;100834.00;;;;5024793;28;20240;-73
2023/10/23 09:32:14;;;;;;;8.40;5.00;;;;;14.40;100831.00;;;;5023504;28;20229;-74
2023/10/23 09:35:01;;;;;;;10.00;5.53;;;;;14.40;100834.00;;;;5019622;28;20281;-73
2023/10/23 09:37:47;;;;;;;12.40;5.50;;;;;14.50;100830.00;;;;5015614;28;20726;-73
2023/10/23 09:40:34;;;;;;;7.93;5.43;;;;;14.70;100839.00;;;;5018808;28;20224;-74
2023/10/23 09:43:21;;;;;;;9.70;4.93;;;;;14.80;100839.00;;;;5024814;28;20399;-74
2023/10/23 09:46:12;;;;;;;7.70;4.50;;;;;14.90;100834.00;;;;5039928;28;20337;-73
2023/10/23 09:49:03;;;;;;;8.23;4.70;;;;;15.10;100831.00;;;;5029043;28;20240;-73
2023/10/23 09:51:51;;;;;;;8.83;4.73;;;;;15.10;100824.00;;;;5023529;28;20236;-73
2023/10/23 09:54:39;;;;;;;6.47;4.03;;;;;15.20;100821.00;;;;5018101;28;20301;-73
2023/10/23 09:57:34;;;;;;;7.43;4.03;;;;;15.20;100830.00;;;;5024924;28;20283;-73
2023/10/23 10:00:21;;;;;;;7.50;4.00;;;;;15.30;100820.00;;;;5022313;28;20236;-73
2023/10/23 10:03:13;;;;;;;8.43;3.10;;;;;15.20;100822.00;;;;5044529;28;20595;-72
2023/10/23 10:06:09;;;;;;;6.97;3.90;;;;;15.20;100823.00;;;;5025365;28;20237;-74
2023/10/23 10:08:57;;;;;;;6.23;3.70;;;;;15.40;100823.00;;;;5024877;28;20322;-74
2023/10/23 10:11:44;;;;;;;5.43;3.90;;;;;15.40;100823.00;;;;5020521;28;20328;-73
2023/10/23 10:14:32;;;;;;;5.50;4.00;;;;;15.60;100821.00;;;;5011242;28;20603;-72
2023/10/23 10:17:19;;;;;;;7.93;4.37;;;;;15.60;100820.00;;;;5024326;28;20233;-73
2023/10/23 10:20:08;;;;;;;10.30;4.90;;;;;15.70;100821.00;;;;5012469;28;20310;-73
2023/10/23 10:23:05;;;;;;;8.77;4.90;;;;;15.60;100803.00;;;;5017564;28;20241;-73
2023/10/23 10:25:52;;;;;;;9.63;5.40;;;;;15.60;100800.00;;;;5020985;28;20698;-74
2023/10/23 10:28:40;;;;;;;12.10;5.83;;;;;15.70;100795.00;;;;5016806;28;20225;-73
2023/10/23 10:31:26;;;;;;;10.57;5.80;;;;;15.60;100789.00;;;;5038098;28;20236;-72
2023/10/23 10:34:13;;;;;;;10.07;5.70;;;;;15.70;100797.00;;;;5039900;28;20351;-73
2023/10/23 10:37:15;;;;;;;10.23;5.40;;;;;15.70;100791.00;;;;5017308;28;20237;-72
2023/10/23 10:40:10;;;;;;;11.53;5.97;;;;;15.60;100784.00;;;;5020145;28;20721;-72
2023/10/23 10:42:57;;;;;;;13.33;7.03;;;;;15.60;100784.00;;;;5021259;28;20741;-73
2023/10/23 10:45:43;;;;;;;11.93;6.47;;;;;15.70;100781.00;;;;5018230;28;20604;-73
2023/10/23 10:48:41;;;;;;;13.70;6.50;;;;;15.80;100767.00;;;;5020232;28;20244;-72
2023/10/23 10:51:29;;;;;;;13.00;7.60;;;;;15.80;100761.00;;;;5011135;28;20246;-73
2023/10/23 10:54:15;;;;;;;11.47;6.43;;;;;15.70;100767.00;;;;5015153;28;20237;-72
2023/10/23 10:57:04;;;;;;;11.87;6.73;;;;;15.70;100766.00;;;;5019698;28;20237;-75
2023/10/23 10:59:55;;;;;;;11.43;6.47;;;;;15.70;100756.00;;;;5016468;28;20229;-73
2023/10/23 11:02:41;;;;;;;17.07;8.40;;;;;15.80;100755.00;;;;5020977;28;20821;-71
2023/10/23 11:05:28;;;;;;;9.60;6.50;;;;;15.90;100760.00;;;;5024160;28;20237;-71
2023/10/23 11:08:14;;;;;;;13.27;7.43;;;;;15.90;100758.00;;;;5020832;28;20649;-73
2023/10/23 11:11:04;;;;;;;11.63;7.30;;;;;15.80;100749.00;;;;5037315;28;21568;-72
2023/10/23 11:13:52;;;;;;;11.77;7.33;;;;;15.80;100741.00;;;;5038861;28;20225;-73
2023/10/23 11:16:39;;;;;;;12.57;6.87;;;;;15.70;100736.00;;;;5014624;28;20271;-73
2023/10/23 11:19:25;;;;;;;12.40;6.57;;;;;15.90;100741.00;;;;5042477;28;20229;-72
2023/10/23 11:22:13;;;;;;;11.23;6.30;;;;;16.10;100738.00;;;;5042017;28;20271;-75
2023/10/23 11:24:59;;;;;;;16.47;8.33;;;;;16.20;100729.00;;;;5034985;28;20236;-74
2023/10/23 11:27:51;;;;;;;12.90;7.70;;;;;16.10;100723.00;;;;5037475;28;20244;-73
2023/10/23 11:30:47;;;;;;;10.50;6.67;;;;;16.20;100723.00;;;;5021057;28;20364;-73
2023/10/23 11:33:34;;;;;;;9.70;5.00;;;;;16.20;100720.00;;;;5029043;28;20233;-73
2023/10/23 11:36:21;;;;;;;7.20;4.77;;;;;16.20;100711.00;;;;5021298;28;20316;-73
2023/10/23 11:39:08;;;;;;;7.17;4.67;;;;;16.20;100705.00;;;;5017272;28;20237;-74
2023/10/23 11:41:56;;;;;;;7.93;4.67;;;;;16.20;100701.00;;;;5034121;28;20742;-71
2023/10/23 11:44:43;;;;;;;6.80;3.77;;;;;16.30;100699.00;;;;5037605;28;20225;-73
2023/10/23 11:47:30;;;;;;;4.67;3.13;;;;;16.30;100702.00;;;;5017995;28;20238;-72
2023/10/23 11:50:17;;;;;;;5.90;3.50;;;;;16.50;100701.00;;;;5021656;28;20307;-74
2023/10/23 11:53:07;;;;;;;8.33;3.43;;;;;16.40;100708.00;;;;5015538;28;20238;-72
2023/10/23 11:55:55;;;;;;;7.53;3.80;;;;;16.30;100706.00;;;;5010938;28;20238;-74
2023/10/23 11:58:44;;;;;;;5.40;3.67;;;;;16.30;100702.00;;;;5021297;28;20225;-73
2023/10/23 12:01:31;;;;;;;5.13;3.67;;;;;16.30;100699.00;;;;5012136;28;20234;-72
2023/10/23 12:04:19;;;;;;;5.30;3.67;;;;;16.40;100697.00;;;;5020821;28;20301;-72
2023/10/23 12:07:06;;;;;;;8.00;4.00;;;;;16.40;100691.00;;;;5042714;28;20236;-73
2023/10/23 12:09:52;;;;;;;9.63;4.60;;;;;16.20;100682.00;;;;5037537;28;20714;-72
2023/10/23 12:12:40;;;;;;;8.63;4.43;;;;;16.10;100682.00;;;;5030807;28;20241;-72
2023/10/23 12:15:27;;;;;;;7.43;3.97;;;;;16.10;100677.00;;;;5041676;28;20224;-75
2023/10/23 12:18:13;;;;;;;10.00;4.33;;;;;16.10;100670.00;;;;5039608;28;20232;-74
2023/10/23 12:21:01;;;;;;;7.77;4.00;;;;;16.10;100662.00;;;;5037466;28;20594;-73
2023/10/23 12:23:47;;;;;;;6.73;3.77;;;;;16.10;100662.00;;;;5030330;28;20607;-74
2023/10/23 12:26:34;;;;;;;6.30;3.93;;;;;16.20;100659.00;;;;5029068;28;20303;-74
2023/10/23 12:29:20;;;;;;;9.43;4.33;;;;;16.10;100655.00;;;;5036456;28;20232;-75
2023/10/23 12:32:07;;;;;;;8.67;4.10;;;;;16.20;100642.00;;;;5036486;28;20240;-74
2023/10/23 12:34:57;;;;;;;6.77;4.57;;;;;16.00;100643.00;;;;5036957;28;20232;-75
2023/10/23 12:37:45;;;;;;;6.70;4.30;;;;;16.10;100637.00;;;;5043137;28;21664;-77
2023/10/23 12:40:32;;;;;;;5.83;4.03;;;;;16.00;100640.00;;;;5042387;28;20244;-74
2023/10/23 12:43:22;;;;;;;6.83;3.80;;;;;15.90;100632.00;;;;5030621;28;20237;-75
2023/10/23 12:46:10;;;;;;;8.17;4.07;;;;;15.90;100640.00;;;;5035073;28;20275;-74
2023/10/23 12:48:56;;;;;;;5.37;3.70;;;;;16.00;100621.00;;;;5030794;28;21449;-75
2023/10/23 12:51:42;;;;;;;6.40;3.93;;;;;15.90;100624.00;;;;5038240;28;20236;-75
2023/10/23 12:54:30;;;;;;;6.67;3.97;;;;;15.90;100632.00;;;;5037934;28;20256;-74
2023/10/23 12:57:16;;;;;;;5.87;3.67;;;;;15.90;100631.00;;;;5040806;28;20233;-71
2023/10/23 13:00:03;;;;;;;5.80;4.10;;;;;15.90;100629.00;;;;5036784;28;20225;-74
2023/10/23 13:02:50;;;;;;;5.27;3.50;;;;;15.90;100621.00;;;;5040193;28;20603;-74
2023/10/23 13:05:36;;;;;;;5.63;4.00;;;;;16.00;100627.00;;;;5044737;28;20236;-75
2023/10/23 13:08:23;;;;;;;8.83;4.10;;;;;16.00;100619.00;;;;5042832;28;20890;-75
2023/10/23 13:11:11;;;;;;;7.00;3.90;;;;;16.00;100620.00;;;;5040348;28;20796;-73
2023/10/23 13:13:57;;;;;;;5.47;3.83;;;;;16.00;100618.00;;;;5041723;28;20229;-74
2023/10/23 13:16:43;;;;;;;5.63;3.93;;;;;16.10;100617.00;;;;5044642;28;20744;-74
2023/10/23 13:19:30;;;;;;;8.77;4.27;;;;;16.00;100613.00;;;;5044531;28;20227;-75
2023/10/23 13:22:16;;;;;;;5.87;4.00;;;;;16.10;100614.00;;;;5021210;28;20230;-74
2023/10/23 13:25:05;;;;;;;8.00;4.23;;;;;16.10;100608.00;;;;5020852;28;20918;-73
2023/10/23 13:27:53;;;;;;;5.20;3.77;;;;;16.10;100610.00;;;;5019113;28;20245;-74
2023/10/23 13:30:39;;;;;;;6.97;3.50;;;;;16.10;100611.00;;;;5016525;28;20242;-73
2023/10/23 13:33:25;;;;;;;7.97;3.90;;;;;16.00;100590.00;;;;5019542;28;20726;-74
2023/10/23 13:36:11;;;;;;;8.57;3.80;;;;;15.90;100587.00;;;;5025133;28;20241;-73
2023/10/23 13:38:59;;;;;;;6.97;3.50;;;;;16.00;100579.00;;;;5016376;28;20237;-74
2023/10/23 13:41:46;;;;;;;5.27;3.87;;;;;16.10;100581.00;;;;5022008;28;20738;-74
2023/10/23 13:44:34;;;;;;;6.27;3.93;;;;;16.00;100574.00;;;;5017378;28;20296;-74